createdAt,value
2019-04-29T00:01:15.475Z,6.43
2019-04-29T00:07:20.153Z,7.17
2019-04-29T00:13:25.736Z,6.33
2019-04-29T00:19:30.287Z,7.00
2019-04-29T00:25:35.119Z,6.23
2019-04-29T00:31:39.690Z,6.87
2019-04-29T00:38:02.142Z,5.80
2019-04-29T00:44:08.695Z,5.80
2019-04-29T00:50:13.384Z,6.80
2019-04-29T00:56:17.939Z,6.57
2019-04-29T01:02:22.556Z,6.60
2019-04-29T01:08:27.538Z,8.13
2019-04-29T01:14:32.086Z,6.13
2019-04-29T01:20:36.631Z,6.60
2019-04-29T01:26:56.230Z,6.93
2019-04-29T01:33:00.898Z,7.10
2019-04-29T01:39:09.311Z,7.03
2019-04-29T01:45:14.077Z,8.30
2019-04-29T01:51:18.646Z,7.30
2019-04-29T01:57:23.198Z,6.67
2019-04-29T02:03:27.794Z,8.60
2019-04-29T02:09:36.394Z,8.57
2019-04-29T02:15:40.940Z,8.60
2019-04-29T02:21:47.118Z,7.70
2019-04-29T02:27:51.667Z,7.00
2019-04-29T02:33:56.211Z,7.90
2019-04-29T02:40:02.398Z,7.47
2019-04-29T02:46:07.066Z,6.87
2019-04-29T02:52:11.807Z,7.67
2019-04-29T02:58:20.747Z,9.30
2019-04-29T03:04:29.901Z,9.20
2019-04-29T03:10:34.443Z,8.50
2019-04-29T03:16:39.812Z,8.03
2019-04-29T03:22:46.369Z,7.77
2019-04-29T03:28:50.910Z,6.70
2019-04-29T03:34:55.465Z,6.43
2019-04-29T03:40:59.999Z,7.20
2019-04-29T03:47:04.793Z,8.10
2019-04-29T03:53:09.398Z,6.23
2019-04-29T03:59:13.948Z,7.27
2019-04-29T04:05:20.701Z,7.87
2019-04-29T04:11:25.241Z,5.87
2019-04-29T04:17:31.449Z,5.70
2019-04-29T04:23:36.023Z,6.13
2019-04-29T04:29:40.554Z,6.80
2019-04-29T04:35:45.105Z,6.87
2019-04-29T04:41:49.665Z,7.97
2019-04-29T04:47:54.373Z,7.00
2019-04-29T04:53:58.910Z,7.30
2019-04-29T05:00:06.537Z,6.93
2019-04-29T05:06:11.176Z,5.77
2019-04-29T05:12:15.715Z,6.03
2019-04-29T05:18:20.334Z,5.70
2019-04-29T05:24:24.953Z,6.30
2019-04-29T05:30:29.893Z,6.73
2019-04-29T05:36:38.178Z,6.23
2019-04-29T05:42:43.471Z,6.10
2019-04-29T05:48:48.192Z,6.17
2019-04-29T05:54:52.848Z,7.13
2019-04-29T06:01:04.765Z,7.83
2019-04-29T06:07:09.309Z,6.27
2019-04-29T06:13:13.866Z,6.57
2019-04-29T06:19:18.425Z,7.10
2019-04-29T06:25:22.959Z,7.40
2019-04-29T06:31:27.501Z,8.80
2019-04-29T06:37:32.057Z,8.03
2019-04-29T06:43:36.594Z,8.10
2019-04-29T06:49:41.218Z,7.67
2019-04-29T06:55:45.772Z,7.70
2019-04-29T07:01:50.323Z,7.80
2019-04-29T07:07:54.911Z,8.27
2019-04-29T07:13:59.487Z,9.27
2019-04-29T07:20:05.386Z,10.40
2019-04-29T07:26:09.951Z,10.03
2019-04-29T07:32:14.509Z,10.47
2019-04-29T07:38:19.117Z,9.93
2019-04-29T07:44:27.443Z,11.80
2019-04-29T07:50:31.857Z,11.27
2019-04-29T07:56:37.811Z,10.63
2019-04-29T08:02:42.765Z,11.67
2019-04-29T08:08:54.671Z,10.90
2019-04-29T08:14:58.626Z,13.87
2019-04-29T08:21:01.404Z,13.43
2019-04-29T08:27:06.095Z,13.97
2019-04-29T08:33:12.089Z,13.00
2019-04-29T08:39:16.957Z,14.40
2019-04-29T08:45:22.226Z,16.73
2019-04-29T08:51:26.863Z,13.50
2019-04-29T08:57:31.798Z,14.80
2019-04-29T09:03:40.350Z,12.00
2019-04-29T09:09:43.986Z,10.60
2019-04-29T09:15:48.546Z,9.17
2019-04-29T09:21:57.374Z,10.30
2019-04-29T09:28:03.657Z,8.73
2019-04-29T09:34:08.233Z,7.70
2019-04-29T09:40:26.769Z,7.17
2019-04-29T09:46:34.591Z,5.50
2019-04-29T09:52:39.320Z,9.47
2019-04-29T09:58:43.963Z,11.37
2019-04-29T10:05:08.664Z,7.33
2019-04-29T10:11:13.795Z,8.13
2019-04-29T10:17:18.149Z,5.60
2019-04-29T10:23:22.941Z,4.60
2019-04-29T10:29:29.147Z,5.20
2019-04-29T10:35:33.868Z,5.50
2019-04-29T10:41:41.609Z,4.03
2019-04-29T10:47:54.211Z,5.20
2019-04-29T10:53:58.897Z,5.97
2019-04-29T11:00:23.483Z,5.70
2019-04-29T11:06:31.439Z,5.97
2019-04-29T11:12:34.926Z,6.00
2019-04-29T11:18:39.966Z,6.70
2019-04-29T11:24:50.517Z,5.90
2019-04-29T11:30:55.411Z,7.10
2019-04-29T11:37:00.531Z,6.63
2019-04-29T11:43:10.808Z,6.83
2019-04-29T11:49:15.582Z,6.03
2019-04-29T11:55:20.298Z,6.30
2019-04-29T12:01:37.979Z,6.40
2019-04-29T12:07:34.081Z,7.10
2019-04-29T12:13:40.474Z,8.90
2019-04-29T12:19:49.445Z,6.67
2019-04-29T12:25:54.013Z,7.10
2019-04-29T12:32:00.284Z,8.60
2019-04-29T12:38:22.725Z,17.17
2019-04-29T12:44:39.653Z,7.87
2019-04-29T12:50:41.589Z,7.80
2019-04-29T12:56:47.638Z,7.80
2019-04-29T13:03:01.786Z,6.70
2019-04-29T13:09:17.965Z,8.07
2019-04-29T13:15:22.378Z,8.40
2019-04-29T13:21:27.134Z,6.67
2019-04-29T13:27:31.769Z,8.63
2019-04-29T13:33:36.350Z,7.80
2019-04-29T13:39:40.972Z,8.10
2019-04-29T13:45:52.939Z,8.60
2019-04-29T13:51:59.128Z,8.83
2019-04-29T13:58:04.022Z,8.50
2019-04-29T14:04:24.380Z,11.27
2019-04-29T14:10:22.900Z,10.20
2019-04-29T14:16:27.521Z,10.87
2019-04-29T14:22:32.329Z,10.20
2019-04-29T14:28:37.046Z,8.93
2019-04-29T14:34:43.336Z,9.73
2019-04-29T14:40:47.892Z,9.80
2019-04-29T14:47:00.000Z,9.27
2019-04-29T14:53:04.621Z,9.60
2019-04-29T14:59:09.173Z,10.53
2019-04-29T15:05:14.078Z,12.47
2019-04-29T15:11:31.341Z,16.10
2019-04-29T15:17:27.062Z,13.80
2019-04-29T15:23:32.966Z,12.37
2019-04-29T15:29:37.670Z,13.33
2019-04-29T15:35:42.363Z,14.50
2019-04-29T15:41:47.087Z,15.63
2019-04-29T15:47:51.731Z,28.33
2019-04-29T15:53:56.274Z,15.63
2019-04-29T16:00:02.051Z,17.27
2019-04-29T16:06:20.789Z,16.63
2019-04-29T16:12:25.938Z,18.87
2019-04-29T16:18:30.487Z,20.00
2019-04-29T16:24:38.227Z,25.17
2019-04-29T16:30:41.490Z,24.13
2019-04-29T16:36:49.822Z,22.83
2019-04-29T16:43:03.179Z,26.63
2019-04-29T16:49:07.962Z,24.57
2019-04-29T16:55:12.682Z,34.50
2019-04-29T17:01:17.308Z,24.90
2019-04-29T17:07:21.950Z,26.10
2019-04-29T17:13:26.585Z,26.20
2019-04-29T17:19:31.302Z,21.87
2019-04-29T17:25:35.886Z,22.47
2019-04-29T17:31:40.954Z,23.00
2019-04-29T17:37:46.277Z,23.37
2019-04-29T17:43:53.330Z,23.37
2019-04-29T17:50:01.982Z,21.00
2019-04-29T17:56:25.341Z,26.03
2019-04-29T18:02:48.157Z,24.20
2019-04-29T18:08:54.993Z,23.07
2019-04-29T18:14:59.576Z,21.60
2019-04-29T18:21:12.912Z,31.40
2019-04-29T18:27:19.125Z,27.60
2019-04-29T18:33:29.874Z,22.47
2019-04-29T18:39:31.616Z,24.00
2019-04-29T18:45:37.861Z,23.33
2019-04-29T18:51:42.417Z,26.37
2019-04-29T18:57:47.049Z,25.50
2019-04-29T19:03:56.189Z,26.43
2019-04-29T19:10:00.810Z,27.47
2019-04-29T19:16:10.366Z,25.77
2019-04-29T19:22:11.684Z,27.83
2019-04-29T19:28:25.212Z,29.80
2019-04-29T19:34:22.643Z,29.10
2019-04-29T19:40:30.653Z,29.00
2019-04-29T19:46:38.269Z,29.63
2019-04-29T19:52:39.770Z,30.60
2019-04-29T19:58:44.686Z,30.33
2019-04-29T20:04:59.570Z,29.77
2019-04-29T20:11:13.753Z,30.83
2019-04-29T20:17:30.541Z,32.17
2019-04-29T20:23:38.462Z,34.67
2019-04-29T20:29:40.285Z,32.70
2019-04-29T20:35:49.077Z,33.80
2019-04-29T20:41:51.386Z,36.07
2019-04-29T20:47:56.424Z,34.80
2019-04-29T20:54:09.259Z,34.53
2019-04-29T21:00:19.953Z,34.13
2019-04-29T21:06:22.236Z,37.63
2019-04-29T21:12:41.419Z,35.57
2019-04-29T21:18:52.963Z,34.10
2019-04-29T21:24:53.952Z,35.80
2019-04-29T21:30:58.852Z,35.87
2019-04-29T21:37:10.058Z,38.27
2019-04-29T21:43:21.654Z,38.13
2019-04-29T21:49:26.273Z,38.40
2019-04-29T21:55:30.827Z,38.40
2019-04-29T22:01:37.446Z,37.60
2019-04-29T22:07:45.971Z,37.00
2019-04-29T22:13:48.009Z,36.07
2019-04-29T22:19:52.557Z,37.70
2019-04-29T22:25:57.182Z,35.67
2019-04-29T22:32:01.796Z,36.53
2019-04-29T22:38:07.874Z,32.33
2019-04-29T22:44:21.285Z,32.90
2019-04-29T22:50:20.949Z,34.23
2019-04-29T22:56:27.631Z,33.00
2019-04-29T23:02:31.839Z,33.70
2019-04-29T23:08:38.099Z,32.97
2019-04-29T23:14:44.407Z,32.97
2019-04-29T23:21:08.652Z,33.10
2019-04-29T23:27:16.337Z,34.40
2019-04-29T23:33:22.995Z,33.00
2019-04-29T23:39:26.031Z,32.20
2019-04-29T23:45:30.570Z,32.00
2019-04-29T23:51:37.753Z,31.37
2019-04-29T23:58:02.925Z,31.40
